sensor_id;sensor_type;location;lat;lon;timestamp;pressure;altitude;pressure_sealevel;temperature;humidity
74329;BME280;62749;51.982;5.916;2023-12-07T00:00:48;101622.16;;;1.65;100.00
74329;BME280;62749;51.982;5.916;2023-12-07T00:03:17;101628.16;;;1.56;100.00
74329;BME280;62749;51.982;5.916;2023-12-07T00:05:47;101624.59;;;1.43;100.00
74329;BME280;62749;51.982;5.916;2023-12-07T00:08:19;101619.38;;;1.42;100.00
74329;BME280;62749;51.982;5.916;2023-12-07T00:10:48;101616.69;;;1.35;100.00
74329;BME280;62749;51.982;5.916;2023-12-07T00:13:17;101615.84;;;1.38;100.00
74329;BME280;62749;51.982;5.916;2023-12-07T00:15:47;101611.59;;;1.46;100.00
74329;BME280;62749;51.982;5.916;2023-12-07T00:18:17;101623.72;;;1.44;100.00
74329;BME280;62749;51.982;5.916;2023-12-07T00:20:46;101624.53;;;1.38;100.00
74329;BME280;62749;51.982;5.916;2023-12-07T00:23:15;101623.69;;;1.41;100.00
74329;BME280;62749;51.982;5.916;2023-12-07T00:25:47;101618.47;;;1.41;100.00
74329;BME280;62749;51.982;5.916;2023-12-07T00:28:17;101625.38;;;1.36;100.00
74329;BME280;62749;51.982;5.916;2023-12-07T00:30:46;101615.81;;;1.32;100.00
74329;BME280;62749;51.982;5.916;2023-12-07T00:33:16;101625.38;;;1.34;100.00
74329;BME280;62749;51.982;5.916;2023-12-07T00:35:48;101612.19;;;1.19;100.00
74329;BME280;62749;51.982;5.916;2023-12-07T00:38:18;101617.44;;;1.23;100.00
74329;BME280;62749;51.982;5.916;2023-12-07T00:40:50;101619.91;;;1.08;100.00
74329;BME280;62749;51.982;5.916;2023-12-07T00:43:19;101617.31;;;1.08;100.00
74329;BME280;62749;51.982;5.916;2023-12-07T00:45:49;101622.56;;;1.13;100.00
74329;BME280;62749;51.982;5.916;2023-12-07T00:48:18;101622.56;;;1.13;100.00
74329;BME280;62749;51.982;5.916;2023-12-07T00:50:47;101622.44;;;1.02;100.00
74329;BME280;62749;51.982;5.916;2023-12-07T00:53:17;101618.16;;;1.07;100.00
74329;BME280;62749;51.982;5.916;2023-12-07T00:55:46;101616.47;;;1.09;100.00
74329;BME280;62749;51.982;5.916;2023-12-07T00:58:18;101619.06;;;1.11;100.00
74329;BME280;62749;51.982;5.916;2023-12-07T01:00:47;101617.31;;;1.10;100.00
74329;BME280;62749;51.982;5.916;2023-12-07T01:03:17;101613.84;;;1.09;100.00
74329;BME280;62749;51.982;5.916;2023-12-07T01:05:52;101612.88;;;0.99;100.00
74329;BME280;62749;51.982;5.916;2023-12-07T01:08:21;101615.38;;;0.90;100.00
74329;BME280;62749;51.982;5.916;2023-12-07T01:10:51;101618.00;;;0.91;100.00
74329;BME280;62749;51.982;5.916;2023-12-07T01:13:23;101625.00;;;0.97;100.00
74329;BME280;62749;51.982;5.916;2023-12-07T01:15:53;101627.59;;;0.96;100.00
74329;BME280;62749;51.982;5.916;2023-12-07T01:18:22;101612.59;;;0.77;100.00
74329;BME280;62749;51.982;5.916;2023-12-07T01:20:51;101614.53;;;0.93;100.00
74329;BME280;62749;51.982;5.916;2023-12-07T01:23:21;101621.53;;;0.98;100.00
74329;BME280;62749;51.982;5.916;2023-12-07T01:25:50;101624.13;;;1.00;100.00
74329;BME280;62749;51.982;5.916;2023-12-07T01:28:19;101631.94;;;0.97;100.00
74329;BME280;62749;51.982;5.916;2023-12-07T01:30:51;101628.34;;;0.88;100.00
74329;BME280;62749;51.982;5.916;2023-12-07T01:33:45;101618.88;;;0.94;100.00
74329;BME280;62749;51.982;5.916;2023-12-07T01:36:14;101621.53;;;0.97;100.00
74329;BME280;62749;51.982;5.916;2023-12-07T01:38:43;101623.97;;;0.84;100.00
74329;BME280;62749;51.982;5.916;2023-12-07T01:41:13;101622.16;;;0.75;100.00
74329;BME280;62749;51.982;5.916;2023-12-07T01:43:45;101619.50;;;0.74;100.00
74329;BME280;62749;51.982;5.916;2023-12-07T01:46:17;101630.78;;;0.73;100.00
74329;BME280;62749;51.982;5.916;2023-12-07T01:48:47;101635.97;;;0.73;100.00
74329;BME280;62749;51.982;5.916;2023-12-07T01:51:18;101636.97;;;0.83;100.00
74329;BME280;62749;51.982;5.916;2023-12-07T01:53:50;101633.56;;;0.87;100.00
74329;BME280;62749;51.982;5.916;2023-12-07T01:56:21;101637.00;;;0.87;100.00
74329;BME280;62749;51.982;5.916;2023-12-07T01:58:51;101639.66;;;0.89;100.00
74329;BME280;62749;51.982;5.916;2023-12-07T02:04:31;101640.50;;;0.89;100.00
74329;BME280;62749;51.982;5.916;2023-12-07T02:07:01;101639.69;;;0.94;100.00
74329;BME280;62749;51.982;5.916;2023-12-07T02:09:31;101644.94;;;0.97;100.00
74329;BME280;62749;51.982;5.916;2023-12-07T02:12:00;101636.31;;;1.01;100.00
74329;BME280;62749;51.982;5.916;2023-12-07T02:14:30;101646.72;;;1.01;100.00
74329;BME280;62749;51.982;5.916;2023-12-07T02:17:08;101637.19;;;1.03;100.00
74329;BME280;62749;51.982;5.916;2023-12-07T02:19:57;101627.66;;;1.03;100.00
74329;BME280;62749;51.982;5.916;2023-12-07T02:22:34;101639.84;;;1.06;100.00
74329;BME280;62749;51.982;5.916;2023-12-07T02:25:07;101636.25;;;0.98;100.00
74329;BME280;62749;51.982;5.916;2023-12-07T02:27:41;101636.38;;;1.07;100.00
74329;BME280;62749;51.982;5.916;2023-12-07T02:30:12;101638.19;;;1.14;100.00
74329;BME280;62749;51.982;5.916;2023-12-07T02:32:44;101628.66;;;1.16;100.00
74329;BME280;62749;51.982;5.916;2023-12-07T02:35:14;101643.53;;;1.28;100.00
74329;BME280;62749;51.982;5.916;2023-12-07T02:37:45;101625.28;;;1.25;100.00
74329;BME280;62749;51.982;5.916;2023-12-07T02:40:19;101628.78;;;1.27;100.00
74329;BME280;62749;51.982;5.916;2023-12-07T02:42:53;101634.03;;;1.32;100.00
74329;BME280;62749;51.982;5.916;2023-12-07T02:45:23;101626.19;;;1.29;100.00
74329;BME280;62749;51.982;5.916;2023-12-07T02:47:53;101621.88;;;1.31;100.00
74329;BME280;62749;51.982;5.916;2023-12-07T02:50:22;101632.34;;;1.38;100.00
74329;BME280;62749;51.982;5.916;2023-12-07T02:52:52;101621.00;;;1.32;100.00
74329;BME280;62749;51.982;5.916;2023-12-07T02:55:23;101624.50;;;1.34;100.00
74329;BME280;62749;51.982;5.916;2023-12-07T02:57:55;101627.97;;;1.33;100.00
74329;BME280;62749;51.982;5.916;2023-12-07T03:00:24;101628.81;;;1.33;100.00
74329;BME280;62749;51.982;5.916;2023-12-07T03:02:53;101622.75;;;1.33;100.00
74329;BME280;62749;51.982;5.916;2023-12-07T03:05:23;101620.03;;;1.20;100.00
74329;BME280;62749;51.982;5.916;2023-12-07T03:07:52;101613.94;;;1.18;100.00
74329;BME280;62749;51.982;5.916;2023-12-07T03:10:21;101616.59;;;1.23;100.00
74329;BME280;62749;51.982;5.916;2023-12-07T03:12:51;101630.53;;;1.31;100.00
74329;BME280;62749;51.982;5.916;2023-12-07T03:15:23;101618.28;;;1.21;100.00
74329;BME280;62749;51.982;5.916;2023-12-07T03:17:52;101619.19;;;1.23;100.00
74329;BME280;62749;51.982;5.916;2023-12-07T03:20:22;101633.06;;;1.20;100.00
74329;BME280;62749;51.982;5.916;2023-12-07T03:22:51;101625.19;;;1.17;100.00
74329;BME280;62749;51.982;5.916;2023-12-07T03:25:20;101630.38;;;1.14;100.00
74329;BME280;62749;51.982;5.916;2023-12-07T03:27:50;101634.69;;;1.12;100.00
74329;BME280;62749;51.982;5.916;2023-12-07T03:30:33;101632.22;;;1.25;100.00
74329;BME280;62749;51.982;5.916;2023-12-07T03:33:03;101634.00;;;1.29;100.00
74329;BME280;62749;51.982;5.916;2023-12-07T03:35:33;101639.19;;;1.30;100.00
74329;BME280;62749;51.982;5.916;2023-12-07T03:38:02;101642.75;;;1.35;100.00
74329;BME280;62749;51.982;5.916;2023-12-07T03:40:32;101639.13;;;1.19;100.00
74329;BME280;62749;51.982;5.916;2023-12-07T03:43:01;101640.00;;;1.25;100.00
74329;BME280;62749;51.982;5.916;2023-12-07T03:45:33;101638.38;;;1.33;100.00
74329;BME280;62749;51.982;5.916;2023-12-07T03:48:03;101634.94;;;1.34;100.00
74329;BME280;62749;51.982;5.916;2023-12-07T03:50:32;101648.88;;;1.41;100.00
74329;BME280;62749;51.982;5.916;2023-12-07T03:53:02;101654.94;;;1.41;100.00
74329;BME280;62749;51.982;5.916;2023-12-07T03:55:31;101649.75;;;1.43;100.00
74329;BME280;62749;51.982;5.916;2023-12-07T03:58:00;101650.66;;;1.46;100.00
74329;BME280;62749;51.982;5.916;2023-12-07T04:00:34;101645.38;;;1.38;100.00
74329;BME280;62749;51.982;5.916;2023-12-07T04:03:03;101638.47;;;1.44;100.00
74329;BME280;62749;51.982;5.916;2023-12-07T04:05:33;101652.44;;;1.53;100.00
74329;BME280;62749;51.982;5.916;2023-12-07T04:08:02;101654.16;;;1.50;100.00
74329;BME280;62749;51.982;5.916;2023-12-07T04:10:32;101653.34;;;1.54;100.00
74329;BME280;62749;51.982;5.916;2023-12-07T04:13:01;101647.31;;;1.60;100.00
74329;BME280;62749;51.982;5.916;2023-12-07T04:15:30;101650.81;;;1.65;100.00
74329;BME280;62749;51.982;5.916;2023-12-07T04:18:03;101647.31;;;1.63;100.00
74329;BME280;62749;51.982;5.916;2023-12-07T04:20:32;101644.69;;;1.58;100.00
74329;BME280;62749;51.982;5.916;2023-12-07T04:23:02;101644.72;;;1.60;100.00
74329;BME280;62749;51.982;5.916;2023-12-07T04:25:31;101649.84;;;1.55;100.00
74329;BME280;62749;51.982;5.916;2023-12-07T04:28:00;101651.59;;;1.56;100.00
74329;BME280;62749;51.982;5.916;2023-12-07T04:30:30;101649.06;;;1.64;100.00
74329;BME280;62749;51.982;5.916;2023-12-07T04:33:02;101650.75;;;1.54;100.00
74329;BME280;62749;51.982;5.916;2023-12-07T04:35:31;101649.03;;;1.58;100.00
74329;BME280;62749;51.982;5.916;2023-12-07T04:38:01;101648.13;;;1.57;100.00
74329;BME280;62749;51.982;5.916;2023-12-07T04:40:30;101658.66;;;1.69;100.00
74329;BME280;62749;51.982;5.916;2023-12-07T04:43:00;101652.59;;;1.69;100.00
74329;BME280;62749;51.982;5.916;2023-12-07T04:45:29;101660.38;;;1.66;100.00
74329;BME280;62749;51.982;5.916;2023-12-07T04:47:58;101663.88;;;1.66;100.00
74329;BME280;62749;51.982;5.916;2023-12-07T04:50:31;101658.66;;;1.69;100.00
74329;BME280;62749;51.982;5.916;2023-12-07T04:53:00;101663.84;;;1.63;100.00
74329;BME280;62749;51.982;5.916;2023-12-07T04:55:30;101661.22;;;1.65;100.00
74329;BME280;62749;51.982;5.916;2023-12-07T04:57:59;101662.97;;;1.64;100.00
74329;BME280;62749;51.982;5.916;2023-12-07T05:00:28;101658.50;;;1.51;100.00
74329;BME280;62749;51.982;5.916;2023-12-07T05:02:58;101662.00;;;1.55;100.00
74329;BME280;62749;51.982;5.916;2023-12-07T05:05:27;101663.75;;;1.56;100.00
74329;BME280;62749;51.982;5.916;2023-12-07T05:08:13;101652.28;;;1.36;100.00
74329;BME280;62749;51.982;5.916;2023-12-07T05:10:42;101658.34;;;1.35;100.00
74329;BME280;62749;51.982;5.916;2023-12-07T05:13:11;101663.66;;;1.43;100.00
74329;BME280;62749;51.982;5.916;2023-12-07T05:15:41;101658.38;;;1.37;100.00
74329;BME280;62749;51.982;5.916;2023-12-07T05:18:10;101654.84;;;1.32;100.00
74329;BME280;62749;51.982;5.916;2023-12-07T05:20:39;101646.16;;;1.28;100.00
74329;BME280;62749;51.982;5.916;2023-12-07T05:23:09;101646.00;;;1.14;100.00
74329;BME280;62749;51.982;5.916;2023-12-07T05:25:41;101662.53;;;1.19;100.00
74329;BME280;62749;51.982;5.916;2023-12-07T05:28:11;101652.13;;;1.19;100.00
74329;BME280;62749;51.982;5.916;2023-12-07T05:30:40;101637.28;;;1.11;100.00
74329;BME280;62749;51.982;5.916;2023-12-07T05:33:10;101652.09;;;1.18;100.00
74329;BME280;62749;51.982;5.916;2023-12-07T05:35:39;101645.13;;;1.15;100.00
74329;BME280;62749;51.982;5.916;2023-12-07T05:38:08;101646.88;;;1.15;100.00
74329;BME280;62749;51.982;5.916;2023-12-07T05:40:40;101645.13;;;1.15;100.00
74329;BME280;62749;51.982;5.916;2023-12-07T05:43:10;101645.09;;;1.09;100.00
74329;BME280;62749;51.982;5.916;2023-12-07T05:45:39;101657.25;;;1.13;100.00
74329;BME280;62749;51.982;5.916;2023-12-07T05:48:10;101660.75;;;1.15;100.00
74329;BME280;62749;51.982;5.916;2023-12-07T05:50:39;101656.31;;;1.06;100.00
74329;BME280;62749;51.982;5.916;2023-12-07T05:53:08;101644.00;;;0.93;100.00
74329;BME280;62749;51.982;5.916;2023-12-07T05:55:41;101645.81;;;0.96;100.00
74329;BME280;62749;51.982;5.916;2023-12-07T05:58:10;101637.81;;;0.80;100.00
74329;BME280;62749;51.982;5.916;2023-12-07T06:00:40;101630.91;;;0.85;100.00
74329;BME280;62749;51.982;5.916;2023-12-07T06:03:10;101635.22;;;0.80;100.00
74329;BME280;62749;51.982;5.916;2023-12-07T06:05:50;101628.31;;;0.82;100.00
74329;BME280;62749;51.982;5.916;2023-12-07T06:08:20;101631.69;;;0.76;100.00
74329;BME280;62749;51.982;5.916;2023-12-07T06:10:52;101638.47;;;0.64;100.00
74329;BME280;62749;51.982;5.916;2023-12-07T06:13:21;101640.22;;;0.63;100.00
74329;BME280;62749;51.982;5.916;2023-12-07T06:15:51;101650.63;;;0.65;100.00
74329;BME280;62749;51.982;5.916;2023-12-07T06:18:20;101644.41;;;0.53;100.00
74329;BME280;62749;51.982;5.916;2023-12-07T06:20:49;101656.47;;;0.48;100.00
74329;BME280;62749;51.982;5.916;2023-12-07T06:23:19;101647.91;;;0.55;100.00
74329;BME280;62749;51.982;5.916;2023-12-07T06:25:48;101648.75;;;0.56;100.00
74329;BME280;62749;51.982;5.916;2023-12-07T06:28:20;101647.84;;;0.52;100.00
74329;BME280;62749;51.982;5.916;2023-12-07T06:30:49;101649.66;;;0.59;100.00
74329;BME280;62749;51.982;5.916;2023-12-07T06:33:19;101651.38;;;0.56;100.00
74329;BME280;62749;51.982;5.916;2023-12-07T06:36:18;101654.75;;;0.49;100.00
74329;BME280;62749;51.982;5.916;2023-12-07T06:38:48;101650.34;;;0.44;100.00
74329;BME280;62749;51.982;5.916;2023-12-07T06:41:18;101658.19;;;0.48;100.00
74329;BME280;62749;51.982;5.916;2023-12-07T06:43:50;101662.56;;;0.49;100.00
74329;BME280;62749;51.982;5.916;2023-12-07T06:46:20;101663.34;;;0.44;100.00
74329;BME280;62749;51.982;5.916;2023-12-07T06:48:49;101664.31;;;0.51;100.00
74329;BME280;62749;51.982;5.916;2023-12-07T06:51:19;101665.16;;;0.50;100.00
74329;BME280;62749;51.982;5.916;2023-12-07T06:53:48;101667.78;;;0.52;100.00
74329;BME280;62749;51.982;5.916;2023-12-07T06:56:18;101665.16;;;0.52;100.00
74329;BME280;62749;51.982;5.916;2023-12-07T06:58:50;101654.78;;;0.52;100.00
74329;BME280;62749;51.982;5.916;2023-12-07T07:01:19;101655.59;;;0.49;100.00
74329;BME280;62749;51.982;5.916;2023-12-07T07:03:48;101661.66;;;0.48;100.00
74329;BME280;62749;51.982;5.916;2023-12-07T07:06:18;101663.50;;;0.55;100.00
74329;BME280;62749;51.982;5.916;2023-12-07T07:08:47;101660.97;;;0.61;100.00
74329;BME280;62749;51.982;5.916;2023-12-07T07:11:16;101667.91;;;0.61;100.00
74329;BME280;62749;51.982;5.916;2023-12-07T07:13:46;101660.00;;;0.53;100.00
74329;BME280;62749;51.982;5.916;2023-12-07T07:16:17;101666.97;;;0.54;100.00
74329;BME280;62749;51.982;5.916;2023-12-07T07:18:47;101667.81;;;0.55;100.00
74329;BME280;62749;51.982;5.916;2023-12-07T07:21:16;101667.00;;;0.57;100.00
74329;BME280;62749;51.982;5.916;2023-12-07T07:23:46;101670.47;;;0.58;100.00
74329;BME280;62749;51.982;5.916;2023-12-07T07:26:16;101674.72;;;0.53;100.00
74329;BME280;62749;51.982;5.916;2023-12-07T07:28:45;101674.59;;;0.42;100.00
74329;BME280;62749;51.982;5.916;2023-12-07T07:31:17;101663.34;;;0.44;100.00
74329;BME280;62749;51.982;5.916;2023-12-07T07:33:47;101671.25;;;0.52;100.00
74329;BME280;62749;51.982;5.916;2023-12-07T07:36:16;101660.81;;;0.48;100.00
74329;BME280;62749;51.982;5.916;2023-12-07T07:38:47;101673.63;;;0.37;100.00
74329;BME280;62749;51.982;5.916;2023-12-07T07:41:17;101676.19;;;0.34;100.00
74329;BME280;62749;51.982;5.916;2023-12-07T07:43:46;101674.53;;;0.37;100.00
74329;BME280;62749;51.982;5.916;2023-12-07T07:46:19;101686.69;;;0.40;100.00
74329;BME280;62749;51.982;5.916;2023-12-07T07:48:49;101683.97;;;0.30;100.00
74329;BME280;62749;51.982;5.916;2023-12-07T07:51:18;101679.63;;;0.33;100.00
74329;BME280;62749;51.982;5.916;2023-12-07T07:53:47;101687.47;;;0.34;100.00
74329;BME280;62749;51.982;5.916;2023-12-07T07:56:17;101690.94;;;0.35;100.00
74329;BME280;62749;51.982;5.916;2023-12-07T07:58:47;101694.47;;;0.38;100.00
74329;BME280;62749;51.982;5.916;2023-12-07T08:01:19;101694.44;;;0.35;100.00
74329;BME280;62749;51.982;5.916;2023-12-07T08:03:48;101687.53;;;0.39;100.00
74329;BME280;62749;51.982;5.916;2023-12-07T08:06:17;101690.25;;;0.45;100.00
74329;BME280;62749;51.982;5.916;2023-12-07T08:08:47;101686.69;;;0.38;100.00
74329;BME280;62749;51.982;5.916;2023-12-07T08:11:16;101692.75;;;0.39;100.00
74329;BME280;62749;51.982;5.916;2023-12-07T08:13:45;101683.28;;;0.44;100.00
74329;BME280;62749;51.982;5.916;2023-12-07T08:16:19;101689.28;;;0.40;100.00
74329;BME280;62749;51.982;5.916;2023-12-07T08:18:48;101688.44;;;0.42;100.00
74329;BME280;62749;51.982;5.916;2023-12-07T08:21:19;101674.38;;;0.28;100.00
74329;BME280;62749;51.982;5.916;2023-12-07T08:23:48;101679.63;;;0.31;100.00
74329;BME280;62749;51.982;5.916;2023-12-07T08:26:18;101678.66;;;0.24;100.00
74329;BME280;62749;51.982;5.916;2023-12-07T08:28:47;101684.59;;;0.15;100.00
74329;BME280;62749;51.982;5.916;2023-12-07T08:31:19;101683.56;;;0.04;100.00
74329;BME280;62749;51.982;5.916;2023-12-07T08:33:50;101682.00;;;0.15;100.00
74329;BME280;62749;51.982;5.916;2023-12-07T08:36:20;101684.41;;;0.03;100.00
74329;BME280;62749;51.982;5.916;2023-12-07T08:38:50;101676.47;;;-0.05;100.00
74329;BME280;62749;51.982;5.916;2023-12-07T08:41:20;101667.91;;;-0.01;100.00
74329;BME280;62749;51.982;5.916;2023-12-07T08:43:50;101680.22;;;0.13;100.00
74329;BME280;62749;51.982;5.916;2023-12-07T08:46:21;101671.69;;;0.22;100.00
74329;BME280;62749;51.982;5.916;2023-12-07T08:48:51;101672.56;;;0.21;100.00
74329;BME280;62749;51.982;5.916;2023-12-07T08:51:20;101672.41;;;0.11;100.00
74329;BME280;62749;51.982;5.916;2023-12-07T08:53:50;101675.94;;;0.15;100.00
74329;BME280;62749;51.982;5.916;2023-12-07T08:56:21;101671.66;;;0.20;100.00
74329;BME280;62749;51.982;5.916;2023-12-07T08:58:50;101655.88;;;0.06;100.00
74329;BME280;62749;51.982;5.916;2023-12-07T09:01:22;101667.34;;;0.19;100.00
74329;BME280;62749;51.982;5.916;2023-12-07T09:03:53;101681.38;;;0.32;100.00
74329;BME280;62749;51.982;5.916;2023-12-07T09:06:22;101678.72;;;0.27;100.00
74329;BME280;62749;51.982;5.916;2023-12-07T09:08:51;101682.28;;;0.36;100.00
74329;BME280;62749;51.982;5.916;2023-12-07T09:14:28;101680.53;;;0.33;100.00
74329;BME280;62749;51.982;5.916;2023-12-07T09:17:00;101683.13;;;0.32;100.00
74329;BME280;62749;51.982;5.916;2023-12-07T09:19:29;101677.81;;;0.25;100.00
74329;BME280;62749;51.982;5.916;2023-12-07T09:21:59;101674.38;;;0.26;100.00
74329;BME280;62749;51.982;5.916;2023-12-07T09:24:28;101685.63;;;0.25;100.00
74329;BME280;62749;51.982;5.916;2023-12-07T09:26:58;101685.72;;;0.33;100.00
74329;BME280;62749;51.982;5.916;2023-12-07T09:29:27;101679.56;;;0.25;100.00
74329;BME280;62749;51.982;5.916;2023-12-07T09:31:56;101676.00;;;0.20;100.00
74329;BME280;62749;51.982;5.916;2023-12-07T09:34:28;101680.41;;;0.25;100.00
74329;BME280;62749;51.982;5.916;2023-12-07T09:37:07;101671.81;;;0.31;100.00
74329;BME280;62749;51.982;5.916;2023-12-07T09:39:37;101676.28;;;0.38;100.00
74329;BME280;62749;51.982;5.916;2023-12-07T09:42:06;101664.03;;;0.33;100.00
74329;BME280;62749;51.982;5.916;2023-12-07T09:44:36;101662.22;;;0.27;100.00
74329;BME280;62749;51.982;5.916;2023-12-07T09:47:05;101662.22;;;0.25;100.00
74329;BME280;62749;51.982;5.916;2023-12-07T09:49:38;101675.34;;;0.35;100.00
74329;BME280;62749;51.982;5.916;2023-12-07T09:52:08;101672.84;;;0.41;100.00
74329;BME280;62749;51.982;5.916;2023-12-07T09:54:40;101669.19;;;0.28;100.00
74329;BME280;62749;51.982;5.916;2023-12-07T09:57:35;101672.75;;;0.35;100.00
74329;BME280;62749;51.982;5.916;2023-12-07T10:00:07;101658.16;;;0.44;100.00
74329;BME280;62749;51.982;5.916;2023-12-07T10:02:37;101653.78;;;0.42;100.00
74329;BME280;62749;51.982;5.916;2023-12-07T10:05:11;101665.91;;;0.41;100.00
74329;BME280;62749;51.982;5.916;2023-12-07T10:07:44;101668.66;;;0.51;100.00
74329;BME280;62749;51.982;5.916;2023-12-07T10:10:15;101669.66;;;0.62;100.00
74329;BME280;62749;51.982;5.916;2023-12-07T10:12:46;101667.06;;;0.64;100.00
74329;BME280;62749;51.982;5.916;2023-12-07T10:15:17;101657.63;;;0.72;100.00
74329;BME280;62749;51.982;5.916;2023-12-07T10:17:49;101652.47;;;0.73;100.00
74329;BME280;62749;51.982;5.916;2023-12-07T10:20:22;101635.13;;;0.74;100.00
74329;BME280;62749;51.982;5.916;2023-12-07T10:23:01;101641.22;;;0.77;100.00
74329;BME280;62749;51.982;5.916;2023-12-07T10:25:32;101639.38;;;0.67;100.00
74329;BME280;62749;51.982;5.916;2023-12-07T10:28:02;101624.72;;;0.72;100.00
74329;BME280;62749;51.982;5.916;2023-12-07T10:30:33;101629.16;;;0.84;100.00
74329;BME280;62749;51.982;5.916;2023-12-07T10:33:03;101629.22;;;0.87;100.00
74329;BME280;62749;51.982;5.916;2023-12-07T10:35:38;101617.91;;;0.85;100.00
74329;BME280;62749;51.982;5.916;2023-12-07T10:38:07;101611.03;;;0.89;100.00
74329;BME280;62749;51.982;5.916;2023-12-07T10:40:37;101612.84;;;0.98;100.00
74329;BME280;62749;51.982;5.916;2023-12-07T10:43:08;101609.34;;;0.93;100.00
74329;BME280;62749;51.982;5.916;2023-12-07T10:45:41;101605.03;;;0.95;100.00
74329;BME280;62749;51.982;5.916;2023-12-07T10:48:10;101599.00;;;1.00;100.00
74329;BME280;62749;51.982;5.916;2023-12-07T10:50:46;101594.66;;;1.01;100.00
74329;BME280;62749;51.982;5.916;2023-12-07T10:53:23;101581.78;;;1.13;100.00
74329;BME280;62749;51.982;5.916;2023-12-07T10:56:00;101575.72;;;1.14;100.00
74329;BME280;62749;51.982;5.916;2023-12-07T10:58:35;101578.38;;;1.22;100.00
74329;BME280;62749;51.982;5.916;2023-12-07T11:01:07;101578.38;;;1.22;100.00
74329;BME280;62749;51.982;5.916;2023-12-07T11:03:39;101560.25;;;1.31;100.00
74329;BME280;62749;51.982;5.916;2023-12-07T11:06:12;101550.75;;;1.38;100.00
74329;BME280;62749;51.982;5.916;2023-12-07T11:08:46;101549.00;;;1.35;100.00
74329;BME280;62749;51.982;5.916;2023-12-07T11:11:23;101551.66;;;1.42;100.00
74329;BME280;62749;51.982;5.916;2023-12-07T11:13:59;101540.25;;;1.27;100.00
74329;BME280;62749;51.982;5.916;2023-12-07T11:16:29;101538.63;;;1.38;100.00
74329;BME280;62749;51.982;5.916;2023-12-07T11:18:59;101539.53;;;1.45;100.00
74329;BME280;62749;51.982;5.916;2023-12-07T11:21:44;101531.78;;;1.53;100.00
74329;BME280;62749;51.982;5.916;2023-12-07T11:24:16;101530.06;;;1.58;100.00
74329;BME280;62749;51.982;5.916;2023-12-07T11:26:46;101533.50;;;1.51;100.00
74329;BME280;62749;51.982;5.916;2023-12-07T11:29:19;101521.38;;;1.55;100.00
74329;BME280;62749;51.982;5.916;2023-12-07T11:31:49;101527.50;;;1.63;100.00
74329;BME280;62749;51.982;5.916;2023-12-07T11:34:33;101524.03;;;1.62;100.00
74329;BME280;62749;51.982;5.916;2023-12-07T11:37:06;101497.03;;;1.52;100.00
74329;BME280;62749;51.982;5.916;2023-12-07T11:39:37;101514.53;;;1.69;100.00
74329;BME280;62749;51.982;5.916;2023-12-07T11:42:11;101518.09;;;1.85;100.00
74329;BME280;62749;51.982;5.916;2023-12-07T11:44:42;101516.38;;;1.89;100.00
74329;BME280;62749;51.982;5.916;2023-12-07T11:47:23;101515.50;;;1.87;100.00
74329;BME280;62749;51.982;5.916;2023-12-07T11:49:52;101511.19;;;1.93;100.00
74329;BME280;62749;51.982;5.916;2023-12-07T11:52:24;101500.78;;;1.93;100.00
74329;BME280;62749;51.982;5.916;2023-12-07T11:54:54;101497.28;;;1.93;100.00
74329;BME280;62749;51.982;5.916;2023-12-07T11:57:23;101497.31;;;2.02;100.00
74329;BME280;62749;51.982;5.916;2023-12-07T11:59:52;101500.81;;;2.03;100.00
74329;BME280;62749;51.982;5.916;2023-12-07T12:02:22;101499.09;;;2.09;100.00
74329;BME280;62749;51.982;5.916;2023-12-07T12:04:52;101493.94;;;2.17;100.00
74329;BME280;62749;51.982;5.916;2023-12-07T12:07:23;101496.53;;;2.19;100.00
74329;BME280;62749;51.982;5.916;2023-12-07T12:09:53;101492.19;;;2.22;100.00
74329;BME280;62749;51.982;5.916;2023-12-07T12:12:22;101492.22;;;2.24;100.00
74329;BME280;62749;51.982;5.916;2023-12-07T12:14:52;101484.34;;;2.18;100.00
74329;BME280;62749;51.982;5.916;2023-12-07T12:17:21;101479.97;;;2.13;100.00
74329;BME280;62749;51.982;5.916;2023-12-07T12:19:51;101462.63;;;2.15;100.00
74329;BME280;62749;51.982;5.916;2023-12-07T12:22:23;101459.19;;;2.18;100.00
74329;BME280;62749;51.982;5.916;2023-12-07T12:24:53;101457.47;;;2.25;100.00
74329;BME280;62749;51.982;5.916;2023-12-07T12:27:22;101445.28;;;2.19;100.00
74329;BME280;62749;51.982;5.916;2023-12-07T12:29:52;101441.81;;;2.25;100.00
74329;BME280;62749;51.982;5.916;2023-12-07T12:32:22;101433.13;;;2.27;100.00
74329;BME280;62749;51.982;5.916;2023-12-07T12:34:52;101422.69;;;2.32;100.00
74329;BME280;62749;51.982;5.916;2023-12-07T12:40:30;101431.38;;;2.23;100.00
74329;BME280;62749;51.982;5.916;2023-12-07T12:43:00;101430.53;;;2.35;100.00
74329;BME280;62749;51.982;5.916;2023-12-07T12:45:29;101420.97;;;2.40;100.00
74329;BME280;62749;51.982;5.916;2023-12-07T12:47:59;101425.25;;;2.17;100.00
74329;BME280;62749;51.982;5.916;2023-12-07T12:50:36;101425.22;;;1.98;100.00
74329;BME280;62749;51.982;5.916;2023-12-07T12:53:07;101427.81;;;1.99;100.00
74329;BME280;62749;51.982;5.916;2023-12-07T12:55:41;101417.41;;;2.03;100.00
74329;BME280;62749;51.982;5.916;2023-12-07T12:58:14;101417.38;;;1.99;100.00
74329;BME280;62749;51.982;5.916;2023-12-07T13:01:08;101412.16;;;1.92;100.00
74329;BME280;62749;51.982;5.916;2023-12-07T13:03:38;101419.13;;;1.99;100.00
74329;BME280;62749;51.982;5.916;2023-12-07T13:06:07;101407.00;;;2.07;100.00
74329;BME280;62749;51.982;5.916;2023-12-07T13:08:37;101407.00;;;2.10;100.00
74329;BME280;62749;51.982;5.916;2023-12-07T13:11:12;101395.72;;;2.18;100.00
74329;BME280;62749;51.982;5.916;2023-12-07T13:13:44;101394.84;;;2.14;100.00
74329;BME280;62749;51.982;5.916;2023-12-07T13:16:13;101374.88;;;2.24;100.00
74329;BME280;62749;51.982;5.916;2023-12-07T13:18:43;101379.19;;;2.15;100.00